Time;durP1;ratioP1;P1;durP2;ratioP2;P2;SDS_P1;SDS_P2;PMS_P1;PMS_P2;Temp;Humidity;BMP_temperature;BMP_pressure;BME280_temperature;BME280_humidity;BME280_pressure;Samples;Min_cycle;Max_cycle;Signal;HPM_P1;HPM_P2
2021/07/28 00:01:28;;;;;;;;;9.67;9.67;;;;;19.66;74.24;100880.94;4812010;29;46416;-84
2021/07/28 00:03:53;;;;;;;;;8.00;8.00;;;;;19.67;74.36;100874.69;4817001;29;44790;-84
2021/07/28 00:06:20;;;;;;;;;8.00;7.00;;;;;19.66;74.00;100880.94;4818064;29;44783;-85
2021/07/28 00:08:46;;;;;;;;;11.00;7.67;;;;;19.65;73.93;100884.50;4817425;29;44868;-85
2021/07/28 00:11:12;;;;;;;;;7.67;5.67;;;;;19.63;73.03;100881.00;4809693;29;45338;-85
2021/07/28 00:13:38;;;;;;;;;4.00;4.00;;;;;19.58;72.59;100880.22;4796884;29;45466;-84
2021/07/28 00:16:08;;;;;;;;;7.00;6.00;;;;;19.55;72.62;100881.13;4790362;29;45284;-85
2021/07/28 00:23:52;;;;;;;;;5.00;5.00;;;;;19.47;72.24;100882.16;4788859;29;45464;-87
2021/07/28 00:26:17;;;;;;;;;3.00;3.00;;;;;19.46;71.84;100880.44;4789376;29;45519;-87
2021/07/28 00:28:42;;;;;;;;;6.00;5.00;;;;;19.43;71.41;100878.69;4789515;29;45550;-86
2021/07/28 00:31:08;;;;;;;;;3.00;3.00;;;;;19.38;71.90;100876.09;4789242;29;46201;-85
2021/07/28 00:33:33;;;;;;;;;5.00;3.33;;;;;19.36;71.68;100871.69;4789239;29;45351;-85
2021/07/28 00:35:59;;;;;;;;;3.00;3.00;;;;;19.32;71.83;100869.09;4788966;29;45973;-85
2021/07/28 00:38:25;;;;;;;;;5.00;3.33;;;;;19.30;71.86;100867.34;4789462;29;45266;-84
2021/07/28 00:40:51;;;;;;;;;5.00;4.00;;;;;19.26;72.10;100866.53;4788578;29;47212;-85
2021/07/28 00:43:16;;;;;;;;;6.33;3.00;;;;;19.24;71.91;100859.47;4772436;29;45522;-86
2021/07/28 00:45:43;;;;;;;;;5.67;4.67;;;;;19.22;72.13;100862.16;4789177;29;45357;-84
2021/07/28 00:48:09;;;;;;;;;4.00;4.00;;;;;19.20;71.88;100861.31;4789553;29;45207;-84
2021/07/28 00:50:39;;;;;;;;;8.00;5.00;;;;;19.19;72.47;100859.53;4772509;29;45404;-85
2021/07/28 00:53:06;;;;;;;;;5.00;4.00;;;;;19.08;71.97;100843.69;4788748;29;45289;-85
2021/07/28 00:55:31;;;;;;;;;5.33;4.00;;;;;19.06;72.50;100857.03;4788763;29;45420;-85
2021/07/28 00:58:00;;;;;;;;;6.67;4.33;;;;;19.03;72.37;100857.09;4773966;29;45353;-84
2021/07/28 01:00:29;;;;;;;;;5.00;5.00;;;;;19.04;71.74;100861.50;4790493;29;47255;-85
2021/07/28 01:02:55;;;;;;;;;4.00;4.00;;;;;19.06;72.38;100865.03;4791595;29;45419;-85
2021/07/28 01:05:21;;;;;;;;;5.00;4.67;;;;;18.98;72.11;100864.28;4791974;29;45452;-84
2021/07/28 01:07:47;;;;;;;;;4.33;4.00;;;;;19.00;72.38;100859.81;4792109;29;45384;-86
2021/07/28 01:10:12;;;;;;;;;6.00;5.00;;;;;18.91;72.23;100852.81;4791857;29;46316;-86
2021/07/28 01:12:43;;;;;;;;;6.67;5.33;;;;;18.92;72.64;100859.03;4792051;29;45216;-84
2021/07/28 01:15:10;;;;;;;;;4.00;4.00;;;;;18.98;72.75;100869.59;4791928;29;45440;-85
2021/07/28 01:17:36;;;;;;;;;7.33;6.00;;;;;18.95;72.19;100867.00;4791843;29;45546;-84
2021/07/28 01:20:05;;;;;;;;;3.00;3.00;;;;;18.91;72.64;100867.94;4791550;29;46249;-85
2021/07/28 01:22:32;;;;;;;;;6.33;5.00;;;;;18.91;72.54;100867.94;4791672;29;45345;-84
2021/07/28 01:24:58;;;;;;;;;5.00;5.00;;;;;18.91;72.55;100874.13;4791730;29;45356;-85
2021/07/28 01:27:24;;;;;;;;;8.00;4.00;;;;;18.93;72.48;100874.13;4775843;29;45455;-85
2021/07/28 01:29:50;;;;;;;;;5.33;4.33;;;;;18.92;71.84;100877.69;4791231;29;45397;-85
2021/07/28 01:32:16;;;;;;;;;5.33;5.00;;;;;18.90;72.17;100877.72;4791384;29;45444;-84
2021/07/28 01:34:42;;;;;;;;;4.33;3.67;;;;;18.90;72.24;100872.41;4792142;29;45409;-86
2021/07/28 01:37:10;;;;;;;;;3.67;3.67;;;;;18.89;72.34;100872.44;4791662;29;45340;-85
2021/07/28 01:39:36;;;;;;;;;3.33;2.67;;;;;18.85;72.13;100868.91;4791418;29;45285;-85
2021/07/28 01:42:02;;;;;;;;;6.33;4.67;;;;;18.89;71.63;100880.41;4791336;29;45766;-85
2021/07/28 01:44:28;;;;;;;;;3.33;2.00;;;;;18.85;71.97;100879.56;4791484;29;45397;-85
2021/07/28 01:46:53;;;;;;;;;5.33;4.67;;;;;18.84;71.96;100878.69;4791811;29;45327;-84
2021/07/28 01:49:19;;;;;;;;;4.00;3.00;;;;;18.83;71.76;100884.91;4791580;29;46384;-85
2021/07/28 01:51:44;;;;;;;;;6.00;4.67;;;;;18.84;71.44;100884.03;4791639;29;45275;-85
2021/07/28 01:54:10;;;;;;;;;5.00;4.00;;;;;18.84;71.83;100889.34;4791381;29;45646;-85
2021/07/28 01:56:42;;;;;;;;;6.33;5.00;;;;;18.83;71.89;100887.56;4775288;29;45420;-85
2021/07/28 01:59:08;;;;;;;;;3.67;3.67;;;;;18.82;71.46;100885.84;4791422;29;45472;-86
2021/07/28 02:01:34;;;;;;;;;3.67;3.67;;;;;18.80;71.79;100892.97;4791041;29;45430;-87
2021/07/28 02:03:59;;;;;;;;;5.00;3.67;;;;;18.79;71.31;100891.19;4791242;29;45749;-85
2021/07/28 02:06:25;;;;;;;;;4.67;3.00;;;;;18.81;71.59;100893.81;4791322;29;45305;-85
2021/07/28 02:08:50;;;;;;;;;6.00;3.67;;;;;18.80;71.55;100894.75;4789886;29;46547;-85
2021/07/28 02:11:16;;;;;;;;;5.67;3.67;;;;;18.80;71.12;100898.28;4790814;29;45408;-86
2021/07/28 02:13:41;;;;;;;;;4.33;3.00;;;;;18.78;70.84;100892.09;4791124;29;45416;-85
2021/07/28 02:16:07;;;;;;;;;2.67;2.67;;;;;18.77;70.64;100892.09;4791249;29;45413;-85
2021/07/28 02:18:33;;;;;;;;;5.33;2.33;;;;;18.77;70.80;100893.00;4791236;29;46039;-85
2021/07/28 02:20:58;;;;;;;;;4.00;3.67;;;;;18.76;70.99;100901.91;4791074;29;45352;-84
2021/07/28 02:23:24;;;;;;;;;7.00;2.67;;;;;18.71;71.34;100888.66;4791147;29;45307;-85
2021/07/28 02:25:49;;;;;;;;;6.67;2.67;;;;;18.75;71.07;100900.13;4791490;29;45229;-85
2021/07/28 02:28:15;;;;;;;;;3.00;3.00;;;;;18.72;70.77;100889.50;4791274;29;45540;-85
2021/07/28 02:30:40;;;;;;;;;2.67;2.67;;;;;18.72;70.66;100892.16;4791857;29;45319;-84
2021/07/28 02:33:05;;;;;;;;;4.33;4.33;;;;;18.70;70.50;100897.53;4792038;29;45204;-85
2021/07/28 02:35:31;;;;;;;;;3.33;2.67;;;;;18.68;71.00;100895.78;4800891;29;45310;-84
2021/07/28 02:37:56;;;;;;;;;3.00;2.67;;;;;18.64;70.98;100889.63;4801888;29;45336;-84
2021/07/28 02:40:22;;;;;;;;;4.67;3.33;;;;;18.65;70.99;100896.72;4808401;29;44593;-84
2021/07/28 02:42:48;;;;;;;;;3.00;3.00;;;;;18.65;70.81;100894.06;4798810;29;45415;-85
2021/07/28 02:45:14;;;;;;;;;2.67;2.67;;;;;18.63;70.82;100887.88;4796297;29;45314;-85
2021/07/28 02:47:40;;;;;;;;;3.67;3.67;;;;;18.66;70.47;100897.56;4791389;29;45911;-85
2021/07/28 02:50:06;;;;;;;;;3.33;2.67;;;;;18.65;70.48;100894.06;4791298;29;45466;-86
2021/07/28 02:52:32;;;;;;;;;3.67;3.67;;;;;18.59;70.26;100886.16;4791000;29;45455;-85
2021/07/28 02:55:03;;;;;;;;;2.00;2.00;;;;;18.60;70.70;100895.88;4790829;29;45275;-86
2021/07/28 02:57:28;;;;;;;;;4.67;2.67;;;;;18.65;71.06;100901.16;4774139;29;47287;-84
2021/07/28 02:59:54;;;;;;;;;3.33;3.33;;;;;18.63;70.59;100898.53;4790425;29;45366;-85
2021/07/28 03:02:19;;;;;;;;;2.33;2.33;;;;;18.65;70.83;100898.50;4790582;29;45817;-84
2021/07/28 03:04:44;;;;;;;;;5.33;3.33;;;;;18.66;71.06;100900.25;4790806;29;45455;-85
2021/07/28 03:07:10;;;;;;;;;5.00;3.33;;;;;18.67;70.53;100915.34;4790486;29;45606;-85
2021/07/28 03:09:35;;;;;;;;;3.33;1.33;;;;;18.57;69.99;100896.81;4790223;29;45409;-85
2021/07/28 03:12:00;;;;;;;;;5.00;3.33;;;;;18.59;69.78;100916.31;4790435;29;45387;-84
2021/07/28 03:14:26;;;;;;;;;5.67;3.67;;;;;18.59;70.63;100910.97;4790642;29;45605;-85
2021/07/28 03:16:51;;;;;;;;;2.67;2.67;;;;;18.59;70.39;100913.63;4790039;29;46171;-85
2021/07/28 03:19:17;;;;;;;;;4.33;2.33;;;;;18.58;70.29;100917.22;4790151;29;45320;-85
2021/07/28 03:21:43;;;;;;;;;5.00;4.33;;;;;18.56;69.89;100915.47;4790053;29;45438;-85
2021/07/28 03:24:09;;;;;;;;;3.00;3.00;;;;;18.56;69.79;100916.34;4790606;29;45344;-85
2021/07/28 03:26:34;;;;;;;;;5.00;5.00;;;;;18.56;70.17;100924.34;4789851;29;45481;-85
2021/07/28 03:28:59;;;;;;;;;8.67;4.33;;;;;18.55;70.27;100924.38;4773708;29;45420;-85
2021/07/28 03:31:25;;;;;;;;;2.67;2.67;;;;;18.56;70.05;100932.31;4790066;29;45524;-85
2021/07/28 03:33:50;;;;;;;;;2.67;2.67;;;;;18.56;70.14;100921.69;4790071;29;45386;-84
2021/07/28 03:36:16;;;;;;;;;3.33;2.67;;;;;18.56;69.55;100916.34;4789961;29;46041;-83
2021/07/28 03:38:41;;;;;;;;;3.33;2.00;;;;;18.52;69.64;100907.53;4790172;29;45295;-84
2021/07/28 03:41:06;;;;;;;;;3.33;1.67;;;;;18.52;69.89;100914.63;4789955;29;45654;-85
2021/07/28 03:43:32;;;;;;;;;2.33;2.33;;;;;18.57;69.29;100919.91;4790011;29;45388;-84
2021/07/28 03:45:57;;;;;;;;;5.67;3.00;;;;;18.56;69.23;100921.69;4789613;29;45813;-84
2021/07/28 03:48:23;;;;;;;;;3.00;3.00;;;;;18.51;69.19;100910.19;4790139;29;46082;-86
2021/07/28 03:50:48;;;;;;;;;2.67;2.67;;;;;18.48;69.07;100916.47;4789704;29;45369;-84
2021/07/28 03:53:14;;;;;;;;;3.67;3.67;;;;;18.53;69.19;100932.34;4789813;29;45366;-85
2021/07/28 03:55:39;;;;;;;;;2.67;2.67;;;;;18.51;68.34;100924.41;4789570;29;45551;-85
2021/07/28 03:58:04;;;;;;;;;4.33;3.33;;;;;18.52;68.36;100925.28;4789510;29;45480;-84
2021/07/28 04:00:30;;;;;;;;;3.67;2.33;;;;;18.50;68.72;100921.75;4789798;29;45494;-85
2021/07/28 04:02:55;;;;;;;;;7.33;2.33;;;;;18.50;69.24;100932.41;4789691;29;45450;-85
2021/07/28 04:05:21;;;;;;;;;3.67;3.00;;;;;18.50;68.42;100932.41;4789268;29;45426;-85
2021/07/28 04:07:53;;;;;;;;;2.33;1.67;;;;;18.48;68.09;100935.09;4789366;29;45379;-85
2021/07/28 04:10:19;;;;;;;;;4.67;3.00;;;;;18.45;68.46;100929.78;4789696;29;45434;-85
2021/07/28 04:12:44;;;;;;;;;1.00;1.00;;;;;18.46;68.88;100942.22;4789607;29;45435;-85
2021/07/28 04:15:10;;;;;;;;;5.00;3.67;;;;;18.46;68.59;100941.34;4789296;29;45415;-84
2021/07/28 04:17:35;;;;;;;;;3.67;1.67;;;;;18.44;68.57;100943.13;4789504;29;45291;-85
2021/07/28 04:20:01;;;;;;;;;3.67;2.33;;;;;18.38;69.01;100936.97;4788954;29;45409;-86
2021/07/28 04:22:27;;;;;;;;;4.00;2.00;;;;;18.40;68.41;100937.81;4789568;29;45443;-85
2021/07/28 04:24:52;;;;;;;;;2.67;2.67;;;;;18.42;68.43;100944.94;4789020;29;46940;-85
2021/07/28 04:27:17;;;;;;;;;2.33;2.00;;;;;18.44;68.41;100948.44;4789247;29;45337;-85
2021/07/28 04:29:43;;;;;;;;;2.33;2.33;;;;;18.39;68.16;100944.06;4789236;29;45308;-84
2021/07/28 04:32:08;;;;;;;;;3.00;2.00;;;;;18.37;67.71;100948.53;4788438;29;45239;-86
2021/07/28 04:34:34;;;;;;;;;2.00;2.00;;;;;18.39;68.11;100949.38;4789460;29;46213;-85
2021/07/28 04:37:00;;;;;;;;;4.33;3.00;;;;;18.38;67.67;100944.94;4788712;29;45341;-85
2021/07/28 04:39:25;;;;;;;;;3.00;2.67;;;;;18.38;67.30;100952.06;4789129;29;45262;-84
2021/07/28 04:41:51;;;;;;;;;4.33;3.00;;;;;18.37;67.37;100956.50;4789469;29;45156;-85
2021/07/28 04:44:16;;;;;;;;;2.00;2.00;;;;;18.34;67.75;100953.00;4772373;29;47119;-86
2021/07/28 04:46:41;;;;;;;;;4.00;2.00;;;;;18.35;68.31;100952.09;4789292;29;45333;-86
2021/07/28 04:49:07;;;;;;;;;3.33;3.33;;;;;18.35;68.33;100952.09;4789046;29;45220;-84
2021/07/28 04:51:32;;;;;;;;;3.00;2.67;;;;;18.33;67.84;100952.13;4789153;29;45355;-85
2021/07/28 04:53:58;;;;;;;;;2.33;2.33;;;;;18.33;68.44;100946.81;4788537;29;46984;-85
2021/07/28 04:56:23;;;;;;;;;3.33;1.00;;;;;18.34;68.25;100942.38;4788805;29;45412;-84
2021/07/28 04:58:49;;;;;;;;;8.00;3.00;;;;;18.35;68.34;100949.44;4789138;29;45475;-85
2021/07/28 05:01:14;;;;;;;;;8.33;4.00;;;;;18.37;68.80;100952.97;4789014;29;45708;-85
2021/07/28 05:03:39;;;;;;;;;2.67;2.00;;;;;18.37;67.53;100952.97;4788891;29;46386;-86
2021/07/28 05:06:05;;;;;;;;;1.67;1.67;;;;;18.36;68.32;100957.41;4788832;29;45333;-84
2021/07/28 05:08:30;;;;;;;;;5.67;3.67;;;;;18.32;67.65;100944.16;4788693;29;45544;-85
2021/07/28 05:10:56;;;;;;;;;3.00;3.00;;;;;18.35;68.12;100952.09;4789189;29;45326;-84
2021/07/28 05:13:21;;;;;;;;;4.00;3.00;;;;;18.36;68.55;100962.72;4788777;29;45426;-84
2021/07/28 05:15:52;;;;;;;;;5.00;3.00;;;;;18.38;68.26;100965.38;4788412;29;45286;-85
2021/07/28 05:18:18;;;;;;;;;3.33;2.00;;;;;18.31;68.01;100948.59;4788981;29;45332;-86
2021/07/28 05:20:43;;;;;;;;;4.33;3.00;;;;;18.34;67.73;100959.19;4788832;29;45390;-85
2021/07/28 05:23:08;;;;;;;;;3.00;2.67;;;;;18.38;67.21;100971.56;4788340;29;45848;-86
2021/07/28 05:25:34;;;;;;;;;2.00;2.00;;;;;18.32;67.29;100961.00;4788724;29;45361;-85
2021/07/28 05:28:00;;;;;;;;;2.00;2.00;;;;;18.34;67.64;100975.16;4788782;29;45487;-84
2021/07/28 05:30:27;;;;;;;;;2.67;2.67;;;;;18.32;67.73;100966.31;4772345;29;45560;-84
2021/07/28 05:32:53;;;;;;;;;3.00;2.00;;;;;18.30;67.89;100962.78;4788002;29;46520;-84
2021/07/28 05:35:18;;;;;;;;;3.67;3.33;;;;;18.31;67.71;100963.69;4788513;29;45480;-84
2021/07/28 05:37:44;;;;;;;;;3.67;2.67;;;;;18.33;68.43;100965.44;4787231;29;45280;-84
2021/07/28 05:40:10;;;;;;;;;3.00;3.00;;;;;18.37;68.74;100969.81;4788850;29;45258;-84
2021/07/28 05:42:35;;;;;;;;;4.67;3.67;;;;;18.38;68.55;100968.91;4788172;29;46423;-84
2021/07/28 05:45:01;;;;;;;;;4.67;2.67;;;;;18.37;68.33;100969.81;4791048;29;45278;-85
2021/07/28 05:47:27;;;;;;;;;3.00;3.00;;;;;18.33;67.60;100968.09;4790179;29;45363;-86
2021/07/28 05:49:52;;;;;;;;;4.67;2.33;;;;;18.39;67.79;100973.34;4775598;29;45426;-85
2021/07/28 05:52:18;;;;;;;;;4.33;1.33;;;;;18.41;68.25;100975.97;4791108;29;46017;-85
2021/07/28 05:54:43;;;;;;;;;3.67;3.00;;;;;18.31;68.04;100967.22;4791444;29;45443;-86
2021/07/28 05:57:08;;;;;;;;;3.00;3.00;;;;;18.37;67.44;100971.59;4791501;29;45493;-84
2021/07/28 05:59:34;;;;;;;;;2.33;2.33;;;;;18.37;67.77;100980.47;4791393;29;45559;-85
2021/07/28 06:01:59;;;;;;;;;3.00;3.00;;;;;18.40;67.81;100985.75;4791246;29;46298;-85
2021/07/28 06:04:24;;;;;;;;;5.33;2.33;;;;;18.40;67.56;100984.88;4791375;29;45354;-85
2021/07/28 06:06:50;;;;;;;;;5.33;3.00;;;;;18.44;67.81;100985.72;4791321;29;45344;-85
2021/07/28 06:09:15;;;;;;;;;3.00;3.00;;;;;18.42;67.94;100988.41;4791389;29;45465;-84
2021/07/28 06:11:40;;;;;;;;;3.00;3.00;;;;;18.43;67.56;100991.91;4791067;29;45392;-85
2021/07/28 06:14:06;;;;;;;;;5.33;2.67;;;;;18.47;67.69;100996.31;4791124;29;45475;-84
2021/07/28 06:16:32;;;;;;;;;4.00;2.33;;;;;18.46;67.80;100995.47;4790916;29;45274;-85
2021/07/28 06:18:58;;;;;;;;;5.00;3.00;;;;;18.46;67.76;100994.56;4791674;29;45335;-84
2021/07/28 06:21:24;;;;;;;;;2.67;2.67;;;;;18.38;67.81;100992.84;4790771;29;45277;-84
2021/07/28 06:23:49;;;;;;;;;3.33;1.67;;;;;18.45;67.94;101008.75;4790607;29;45507;-84
2021/07/28 06:26:14;;;;;;;;;1.33;1.33;;;;;18.47;68.14;101006.97;4790403;29;45379;-85
2021/07/28 06:28:40;;;;;;;;;1.67;1.67;;;;;18.46;67.75;101007.88;4791109;29;45390;-85
2021/07/28 06:31:05;;;;;;;;;2.67;2.67;;;;;18.49;67.92;101010.50;4790539;29;45261;-85
2021/07/28 06:33:30;;;;;;;;;3.33;2.33;;;;;18.45;68.14;100998.09;4791010;29;45432;-87
2021/07/28 06:35:56;;;;;;;;;2.33;1.67;;;;;18.51;68.08;101000.69;4791443;29;45370;-85
2021/07/28 06:38:21;;;;;;;;;4.00;3.00;;;;;18.56;68.83;101009.53;4791940;29;45231;-85
2021/07/28 06:40:47;;;;;;;;;3.00;3.00;;;;;18.58;67.72;101005.06;4791932;29;45745;-86
2021/07/28 06:43:13;;;;;;;;;4.67;2.00;;;;;18.56;68.03;100995.34;4792248;29;45485;-85
2021/07/28 06:45:40;;;;;;;;;3.00;2.67;;;;;18.63;68.12;100997.91;4792052;29;45448;-85
2021/07/28 06:48:06;;;;;;;;;5.33;1.67;;;;;18.63;67.34;100997.91;4792423;29;45412;-86
2021/07/28 06:50:31;;;;;;;;;2.67;2.67;;;;;18.69;67.42;101012.03;4791933;29;45383;-85
2021/07/28 06:52:57;;;;;;;;;5.67;2.33;;;;;18.67;67.52;101008.53;4791550;29;45406;-85
2021/07/28 06:55:22;;;;;;;;;5.00;3.33;;;;;18.69;67.71;100999.63;4790852;29;45392;-85
2021/07/28 06:57:47;;;;;;;;;5.00;3.67;;;;;18.71;67.61;101007.59;4791585;29;45324;-85
2021/07/28 07:00:13;;;;;;;;;3.00;2.00;;;;;18.72;67.72;101015.53;4791565;29;46031;-85
2021/07/28 07:02:39;;;;;;;;;3.00;3.00;;;;;18.71;67.58;101010.25;4791185;29;45339;-85
2021/07/28 07:05:05;;;;;;;;;4.33;4.33;;;;;18.73;67.70;101008.44;4791546;29;45214;-85
2021/07/28 07:07:31;;;;;;;;;5.00;3.33;;;;;18.70;67.49;101020.00;4791690;29;45369;-85
2021/07/28 07:09:56;;;;;;;;;3.00;3.00;;;;;18.79;66.99;101015.47;4791178;29;45311;-85
2021/07/28 07:12:23;;;;;;;;;5.67;4.00;;;;;18.74;67.41;101004.91;4790454;29;45330;-85
2021/07/28 07:14:48;;;;;;;;;5.33;3.33;;;;;18.83;66.96;101015.41;4774000;29;45500;-85
2021/07/28 07:17:15;;;;;;;;;4.67;3.33;;;;;18.86;67.24;101014.50;4790760;29;45397;-85
2021/07/28 07:19:41;;;;;;;;;4.33;2.67;;;;;18.85;67.38;101018.94;4790444;29;46653;-85
2021/07/28 07:22:07;;;;;;;;;5.00;4.00;;;;;18.91;67.53;101025.97;4790267;29;45385;-86
2021/07/28 07:24:32;;;;;;;;;10.00;4.33;;;;;18.94;67.43;101022.38;4774303;29;45497;-86
2021/07/28 07:26:58;;;;;;;;;5.67;4.33;;;;;18.96;67.42;101016.16;4790638;29;45371;-86
2021/07/28 07:29:23;;;;;;;;;2.00;2.00;;;;;19.02;67.02;101025.84;4790816;29;45909;-85
2021/07/28 07:31:49;;;;;;;;;6.67;4.00;;;;;19.08;66.74;101027.53;4797981;29;45195;-84
2021/07/28 07:34:14;;;;;;;;;4.00;2.33;;;;;19.04;66.82;101015.16;4812721;29;45277;-85
2021/07/28 07:36:40;;;;;;;;;6.33;4.67;;;;;19.03;66.58;101008.97;4812179;29;45342;-86
2021/07/28 07:39:07;;;;;;;;;6.00;3.33;;;;;19.11;66.47;101024.84;4809461;29;46602;-87
2021/07/28 07:41:32;;;;;;;;;5.33;4.00;;;;;19.16;66.83;101031.00;4774403;29;45362;-86
2021/07/28 07:43:59;;;;;;;;;4.33;2.67;;;;;19.19;66.82;101032.75;4790318;29;45429;-86
2021/07/28 07:46:25;;;;;;;;;5.33;3.00;;;;;19.21;66.86;101041.59;4791122;29;45441;-85
2021/07/28 07:48:50;;;;;;;;;6.00;3.67;;;;;19.20;66.05;101024.75;4790725;29;46145;-84
2021/07/28 07:51:16;;;;;;;;;4.67;3.00;;;;;19.21;66.72;101030.94;4790295;29;45415;-85
2021/07/28 07:53:41;;;;;;;;;3.33;3.00;;;;;19.23;66.26;101028.28;4774039;29;45455;-84
2021/07/28 07:56:07;;;;;;;;;5.00;2.67;;;;;19.31;66.23;101031.72;4790115;29;45322;-85
2021/07/28 07:58:34;;;;;;;;;4.00;4.00;;;;;19.32;66.15;101029.00;4789406;29;46122;-86
2021/07/28 08:01:05;;;;;;;;;2.00;0.00;;;;;19.35;65.98;101024.53;4790424;29;45425;-86
2021/07/28 08:03:31;;;;;;;;;5.00;3.00;;;;;19.43;65.96;101033.31;4782045;29;45005;-87
2021/07/28 08:05:56;;;;;;;;;3.67;3.00;;;;;19.48;66.49;101026.09;4774914;29;45384;-85
2021/07/28 08:08:21;;;;;;;;;3.33;2.00;;;;;19.44;66.16;101006.63;4789359;29;46951;-87
2021/07/28 08:10:47;;;;;;;;;3.67;2.67;;;;;19.60;66.11;101029.50;4760236;29;45375;-85
2021/07/28 08:13:12;;;;;;;;;7.33;4.00;;;;;19.64;65.90;101020.53;4791628;29;45764;-85
2021/07/28 08:15:38;;;;;;;;;2.67;2.67;;;;;19.66;64.89;101024.97;4791732;29;45235;-86
2021/07/28 08:18:04;;;;;;;;;4.00;4.00;;;;;19.73;63.75;101023.06;4791771;29;45286;-85
2021/07/28 08:20:30;;;;;;;;;4.00;4.00;;;;;19.81;64.68;101030.94;4792603;29;45533;-86
2021/07/28 08:22:55;;;;;;;;;1.67;1.67;;;;;19.87;64.01;101032.63;4783538;29;45254;-85
2021/07/28 08:25:20;;;;;;;;;3.33;3.00;;;;;19.88;64.06;101015.72;4803321;29;45249;-85
2021/07/28 08:27:46;;;;;;;;;1.33;1.33;;;;;19.95;63.40;101024.47;4804439;29;45476;-87
2021/07/28 08:30:13;;;;;;;;;4.67;3.00;;;;;20.01;63.10;101016.38;4803227;29;44764;-84
2021/07/28 08:32:39;;;;;;;;;4.67;3.00;;;;;20.06;63.22;101003.84;4803231;29;44730;-85
2021/07/28 08:35:04;;;;;;;;;3.00;1.00;;;;;20.41;62.91;101008.59;4803092;29;45846;-87
2021/07/28 08:37:30;;;;;;;;;2.00;2.00;;;;;20.78;63.02;101001.59;4803605;29;45259;-87
2021/07/28 08:39:55;;;;;;;;;1.00;1.00;;;;;21.39;61.95;101021.69;4786529;29;45648;-86
2021/07/28 08:42:23;;;;;;;;;2.67;1.67;;;;;21.85;60.75;101006.31;4802658;29;44821;-85
2021/07/28 08:44:48;;;;;;;;;3.33;2.67;;;;;22.44;59.34;101013.72;4802806;29;45250;-85
2021/07/28 08:47:18;;;;;;;;;1.67;1.33;;;;;22.94;58.36;101012.31;4785651;29;47147;-85
2021/07/28 08:49:43;;;;;;;;;2.00;2.00;;;;;23.34;58.15;101010.19;4783226;29;45366;-87
2021/07/28 08:52:10;;;;;;;;;0.67;0.00;;;;;23.54;57.26;101010.50;4791323;29;45837;-84
2021/07/28 08:54:35;;;;;;;;;2.00;2.00;;;;;23.80;56.99;101022.16;4790546;29;45447;-86
2021/07/28 08:57:01;;;;;;;;;1.33;1.33;;;;;23.86;55.63;101010.38;4790749;29;45992;-85
2021/07/28 08:59:31;;;;;;;;;1.00;1.00;;;;;23.92;54.18;101016.38;4790525;29;45480;-84
2021/07/28 09:01:58;;;;;;;;;3.33;1.00;;;;;23.91;54.49;101019.13;4791128;29;45499;-85
2021/07/28 09:04:24;;;;;;;;;3.33;2.00;;;;;23.92;55.07;101027.13;4773759;29;45514;-85
2021/07/28 09:06:50;;;;;;;;;2.00;1.00;;;;;23.90;53.91;101031.66;4789312;29;45361;-85
2021/07/28 09:09:15;;;;;;;;;2.67;1.67;;;;;23.83;53.30;101031.00;4788943;29;45410;-86
2021/07/28 09:11:56;;;;;;;;;1.33;1.00;;;;;23.71;54.25;101020.69;4789671;29;45331;-84
2021/07/28 09:14:24;;;;;;;;;2.00;2.00;;;;;23.63;53.99;101015.56;4772797;29;45360;-86
2021/07/28 09:16:53;;;;;;;;;1.00;1.00;;;;;23.52;53.40;101020.41;4772418;29;47462;-85
2021/07/28 09:19:48;;;;;;;;;2.33;1.67;;;;;23.35;53.61;101021.81;4790878;29;45414;-85
2021/07/28 09:22:16;;;;;;;;;1.00;1.00;;;;;23.24;54.06;101033.75;4774325;29;45363;-84
2021/07/28 09:24:44;;;;;;;;;1.00;1.00;;;;;23.15;53.84;101031.34;4776724;29;45629;-85
2021/07/28 09:27:52;;;;;;;;;1.00;1.00;;;;;23.04;53.51;101028.09;4792071;29;47011;-85
2021/07/28 09:30:38;;;;;;;;;2.00;2.00;;;;;22.97;54.21;101020.25;4753792;29;45341;-85
2021/07/28 09:33:11;;;;;;;;;2.00;2.00;;;;;22.95;53.98;101021.25;4753472;29;45396;-85
2021/07/28 09:35:54;;;;;;;;;3.00;3.00;;;;;22.91;53.55;101028.47;4753717;29;45565;-84
2021/07/28 09:38:43;;;;;;;;;2.00;1.00;;;;;22.96;53.99;101029.22;4753537;29;47155;-84
2021/07/28 09:41:26;;;;;;;;;3.00;3.00;;;;;23.09;54.14;101032.44;4753467;29;45516;-87
2021/07/28 09:44:00;;;;;;;;;1.00;1.00;;;;;23.16;53.66;101035.78;4738567;29;45525;-84
2021/07/28 09:46:32;;;;;;;;;1.00;1.00;;;;;23.24;54.43;101020.34;4770009;29;45567;-86
2021/07/28 09:49:06;;;;;;;;;5.00;1.67;;;;;23.33;53.58;101023.66;4763013;29;46568;-87
2021/07/28 09:51:34;;;;;;;;;2.00;2.00;;;;;23.42;53.78;101030.50;4743955;29;45291;-86
2021/07/28 09:54:09;;;;;;;;;5.00;2.00;;;;;23.56;53.66;101035.50;4753419;29;45408;-86
2021/07/28 09:56:38;;;;;;;;;3.00;1.33;;;;;23.64;53.38;101020.00;4753512;29;45532;-85
2021/07/28 09:59:05;;;;;;;;;3.00;2.00;;;;;23.93;53.50;101045.00;4752928;29;46517;-87
2021/07/28 10:01:33;;;;;;;;;1.67;1.67;;;;;23.93;51.42;101028.88;4753351;29;45311;-85
2021/07/28 10:04:00;;;;;;;;;2.00;2.00;;;;;24.20;52.39;101037.84;4753198;29;45361;-85
2021/07/28 10:06:38;;;;;;;;;2.67;2.67;;;;;24.59;52.16;101045.44;4743713;29;45479;-84
2021/07/28 10:09:09;;;;;;;;;3.33;2.00;;;;;24.81;50.39;101036.53;4760662;29;47260;-84
2021/07/28 10:11:37;;;;;;;;;2.00;1.67;;;;;25.17;50.81;101037.03;4790988;29;45426;-85
2021/07/28 10:14:03;;;;;;;;;4.67;2.67;;;;;25.45;49.97;101035.91;4791398;29;45419;-86
2021/07/28 10:16:31;;;;;;;;;6.33;2.00;;;;;25.54;48.74;101032.88;4791662;29;45497;-84
2021/07/28 10:19:00;;;;;;;;;1.00;1.00;;;;;25.77;48.97;101011.31;4774979;29;47522;-85
2021/07/28 10:21:26;;;;;;;;;3.00;2.00;;;;;26.20;48.43;101030.16;4774843;29;45457;-86
2021/07/28 10:23:51;;;;;;;;;2.00;2.00;;;;;26.55;47.67;101055.59;4774719;29;45408;-87
2021/07/28 10:26:18;;;;;;;;;5.00;2.00;;;;;26.81;47.59;101027.47;4774870;29;45425;-85
2021/07/28 10:28:47;;;;;;;;;2.00;2.00;;;;;27.10;46.59;101027.03;4791080;29;46169;-89
2021/07/28 10:31:13;;;;;;;;;2.00;2.00;;;;;27.40;46.90;101050.78;4772417;29;45542;-87
2021/07/28 10:33:56;;;;;;;;;3.33;2.33;;;;;27.63;45.48;101029.88;4791102;29;45412;-86
2021/07/28 10:36:42;;;;;;;;;2.00;2.00;;;;;27.86;45.10;101040.47;4791232;29;45346;-88
2021/07/28 10:39:08;;;;;;;;;4.00;2.00;;;;;27.94;44.72;101034.72;4790687;29;45750;-85
2021/07/28 10:41:42;;;;;;;;;2.00;2.00;;;;;27.94;45.40;101027.44;4774374;29;45472;-85
2021/07/28 10:44:13;;;;;;;;;2.00;2.00;;;;;28.01;45.25;101036.13;4791067;29;45465;-84
2021/07/28 10:46:54;;;;;;;;;3.33;3.00;;;;;28.09;45.02;101028.50;4775001;29;45382;-87
2021/07/28 10:49:35;;;;;;;;;2.00;2.00;;;;;28.14;44.60;101032.78;4789529;29;47267;-86
2021/07/28 10:52:01;;;;;;;;;3.00;1.00;;;;;28.26;45.49;101021.31;4790431;29;45365;-85
2021/07/28 10:54:49;;;;;;;;;2.67;1.33;;;;;28.51;43.13;101036.25;4790810;29;45241;-85
2021/07/28 10:57:32;;;;;;;;;1.33;1.33;;;;;28.64;43.48;101030.19;4790677;29;45322;-86
2021/07/28 10:59:59;;;;;;;;;1.00;1.00;;;;;28.72;42.15;101022.53;4790562;29;45463;-86
2021/07/28 11:02:24;;;;;;;;;2.33;2.33;;;;;28.88;42.48;101027.94;4774201;29;45402;-85
2021/07/28 11:05:24;;;;;;;;;1.00;1.00;;;;;29.15;41.69;101037.31;4790786;29;45691;-86
2021/07/28 11:08:02;;;;;;;;;2.00;1.00;;;;;29.35;41.03;101024.50;4790901;29;45280;-85
2021/07/28 11:10:41;;;;;;;;;3.00;2.00;;;;;29.53;40.78;101029.81;4790764;29;45446;-87
2021/07/28 11:13:17;;;;;;;;;3.00;1.67;;;;;29.68;39.86;101028.03;4790352;29;45439;-87
2021/07/28 11:15:57;;;;;;;;;2.00;1.67;;;;;29.78;40.42;101026.53;4774215;29;45274;-85
2021/07/28 11:18:32;;;;;;;;;1.00;1.00;;;;;29.83;39.71;101028.97;4790611;29;45314;-85
2021/07/28 11:21:09;;;;;;;;;5.00;2.67;;;;;29.67;38.93;101029.00;4789878;29;45226;-86
2021/07/28 11:23:34;;;;;;;;;3.00;1.67;;;;;29.42;38.27;101043.97;4789828;29;45448;-85
2021/07/28 11:26:01;;;;;;;;;1.00;1.00;;;;;29.08;38.37;101027.81;4790194;29;45330;-86
2021/07/28 11:28:27;;;;;;;;;1.33;1.33;;;;;28.81;38.74;101039.22;4790141;29;45436;-86
2021/07/28 11:31:00;;;;;;;;;2.33;1.00;;;;;28.45;37.92;101047.38;4773700;29;46952;-86